Time;durP1;ratioP1;P1;durP2;ratioP2;P2;SDS_P1;SDS_P2;PMS_P1;PMS_P2;Temp;Humidity;BMP_temperature;BMP_pressure;BME280_temperature;BME280_humidity;BME280_pressure;Samples;Min_cycle;Max_cycle;Signal;HPM_P1;HPM_P2
2023/06/08 00:03:44;;;;;;;6.15;5.05;;;;;;;21.85;42.88;99668.00;10412014;28;20337;-66
2023/06/08 00:08:46;;;;;;;7.20;5.45;;;;;;;23.16;41.01;99607.16;10406717;28;20810;-68
2023/06/08 00:13:48;;;;;;;6.10;5.30;;;;;;;22.39;42.00;99641.59;10420705;28;20232;-65
2023/06/08 00:18:54;;;;;;;8.77;6.43;;;;;;;21.83;42.80;99652.97;10411386;28;20208;-65
2023/06/08 00:23:56;;;;;;;9.10;5.75;;;;;;;22.38;41.76;99624.41;10411011;28;20229;-65
2023/06/08 00:28:58;;;;;;;7.72;6.10;;;;;;;19.49;46.40;99733.09;10426814;28;20200;-66
2023/06/08 00:34:00;;;;;;;6.43;5.63;;;;;;;21.89;43.22;99635.59;10410258;28;20231;-66
2023/06/08 00:39:01;;;;;;;6.78;5.95;;;;;;;21.03;44.22;99692.59;10419342;28;20251;-65
2023/06/08 00:44:07;;;;;;;6.22;5.63;;;;;;;21.03;44.12;99659.16;10419511;28;20308;-66
2023/06/08 00:49:15;;;;;;;7.22;6.00;;;;;;;20.38;45.11;99688.03;10411257;28;20641;-67
2023/06/08 00:54:18;;;;;;;6.15;5.35;;;;;;;22.00;42.48;99617.44;10414240;28;20264;-66
2023/06/08 00:59:20;;;;;;;8.07;5.65;;;;;;;21.99;42.75;99645.75;10415392;28;20216;-65
2023/06/08 01:04:23;;;;;;;8.73;6.05;;;;;;;21.26;43.37;99663.44;10424604;28;20248;-68
2023/06/08 01:09:46;;;;;;;7.82;6.03;;;;;;;20.58;44.99;99714.63;10417089;28;20262;-68
2023/06/08 01:15:13;;;;;;;9.05;6.70;;;;;;;20.68;45.37;99658.50;10416697;28;20224;-68
2023/06/08 01:20:21;;;;;;;6.40;5.80;;;;;;;21.29;43.85;99633.00;10419585;28;20218;-68
2023/06/08 01:25:28;;;;;;;7.47;6.43;;;;;;;21.41;43.99;99658.16;10412316;28;20995;-68
2023/06/08 01:30:30;;;;;;;8.27;6.70;;;;;;;19.85;45.45;99669.34;10417293;28;20208;-68
2023/06/08 01:35:32;;;;;;;8.50;6.10;;;;;;;19.45;47.43;99716.50;10416606;28;20602;-64
2023/06/08 01:40:35;;;;;;;11.43;6.75;;;;;;;20.10;45.43;99670.81;10415352;28;20213;-68
2023/06/08 01:45:40;;;;;;;7.70;6.55;;;;;;;21.02;44.52;99662.94;10421389;28;20285;-64
2023/06/08 01:50:43;;;;;;;8.40;6.80;;;;;;;20.38;45.21;99669.00;10422162;28;20253;-64
2023/06/08 01:55:49;;;;;;;9.93;6.88;;;;;;;20.01;46.20;99664.13;10410599;28;20256;-68
2023/06/08 02:00:51;;;;;;;8.20;7.40;;;;;;;19.55;47.28;99686.84;10417745;28;20240;-65
2023/06/08 02:05:52;;;;;;;8.90;8.00;;;;;;;20.23;46.13;99666.94;10417920;28;20663;-68
2023/06/08 02:10:54;;;;;;;8.68;6.80;;;;;;;20.62;44.75;99653.28;10412557;28;20736;-68
2023/06/08 02:15:57;;;;;;;8.23;7.43;;;;;;;21.04;44.15;99653.44;10418416;28;21165;-65
2023/06/08 02:21:01;;;;;;;6.68;6.00;;;;;;;20.56;44.59;99663.25;10420015;28;20211;-66
2023/06/08 02:26:04;;;;;;;8.00;7.20;;;;;;;20.20;45.75;99676.41;10412370;28;20634;-68
2023/06/08 02:31:05;;;;;;;8.65;7.78;;;;;;;20.59;45.37;99670.91;10415514;28;20220;-67
2023/06/08 02:36:09;;;;;;;7.32;6.63;;;;;;;20.68;44.90;99653.06;10417391;28;20315;-69
2023/06/08 02:41:11;;;;;;;8.32;7.53;;;;;;;20.81;45.12;99654.56;10415451;28;20211;-68
2023/06/08 02:46:13;;;;;;;7.57;6.87;;;;;;;20.42;45.02;99662.81;10426488;28;20220;-66
2023/06/08 02:51:16;;;;;;;8.10;7.28;;;;;;;21.10;43.85;99650.78;10414408;28;20322;-68
2023/06/08 02:56:18;;;;;;;9.63;7.60;;;;;;;18.83;47.00;99669.25;10412347;28;20252;-68
2023/06/08 03:01:20;;;;;;;9.23;7.23;;;;;;;20.02;46.15;99665.78;10416046;28;20600;-68
2023/06/08 03:06:26;;;;;;;7.57;6.87;;;;;;;18.72;48.01;99705.34;10413500;28;20243;-65
2023/06/08 03:11:28;;;;;;;8.20;7.40;;;;;;;18.26;48.87;99691.66;10416623;28;20257;-65
2023/06/08 03:16:31;;;;;;;9.73;7.87;;;;;;;17.77;49.96;99693.78;10416100;28;20221;-64
2023/06/08 03:21:36;;;;;;;8.67;7.73;;;;;;;17.58;50.32;99689.50;10416777;28;20208;-67
2023/06/08 03:26:38;;;;;;;8.70;7.37;;;;;;;17.82;49.64;99682.28;10407448;28;20232;-66
2023/06/08 03:31:40;;;;;;;7.77;6.97;;;;;;;18.24;49.19;99677.53;10414874;28;20691;-67
2023/06/08 03:36:43;;;;;;;8.80;7.90;;;;;;;17.96;48.96;99680.16;10412740;28;20255;-68
2023/06/08 03:41:45;;;;;;;8.13;7.30;;;;;;;17.96;48.88;99690.97;10421038;28;20308;-68
2023/06/08 03:46:47;;;;;;;8.17;7.37;;;;;;;18.22;48.07;99705.88;10418663;28;20264;-71
2023/06/08 03:51:48;;;;;;;8.30;7.50;;;;;;;17.50;49.94;99717.72;10422128;28;20212;-72
2023/06/08 03:56:50;;;;;;;8.67;7.87;;;;;;;19.36;47.04;99683.50;10414321;28;20215;-71
2023/06/08 04:01:52;;;;;;;8.70;7.80;;;;;;;17.74;50.02;99732.16;10417807;28;20371;-72
2023/06/08 04:06:54;;;;;;;8.07;7.27;;;;;;;18.96;48.24;99683.59;10418048;28;20852;-70
2023/06/08 04:11:57;;;;;;;7.93;7.13;;;;;;;17.49;50.39;99714.19;10411659;28;21033;-71
2023/06/08 04:16:58;;;;;;;7.97;6.80;;;;;;;18.38;48.89;99699.78;10410337;28;20225;-70
2023/06/08 04:22:00;;;;;;;8.40;7.60;;;;;;;18.91;47.69;99703.28;10417926;28;20263;-71
2023/06/08 04:27:03;;;;;;;8.03;6.97;;;;;;;17.51;50.20;99749.13;10415845;28;20260;-71
2023/06/08 04:32:05;;;;;;;8.40;7.10;;;;;;;18.67;48.79;99726.94;10422627;28;20260;-70
2023/06/08 04:37:07;;;;;;;10.27;8.50;;;;;;;15.39;57.63;99657.56;10420268;28;20659;-70
2023/06/08 04:42:09;;;;;;;12.27;8.20;;;;;;;19.23;50.71;99699.28;10421820;28;20290;-71
2023/06/08 04:47:12;;;;;;;9.27;7.77;;;;;;;17.95;52.36;99757.00;10425158;28;20695;-69
2023/06/08 04:52:15;;;;;;;9.90;9.00;;;;;;;16.52;55.33;99761.00;10414632;28;20213;-70
2023/06/08 04:57:19;;;;;;;9.07;8.27;;;;;;;18.67;51.84;99724.22;10413604;28;20235;-72
2023/06/08 05:05:22;;;;;;;9.40;8.40;;;;;;;15.73;57.99;99778.72;10454041;28;20922;-68
2023/06/08 05:10:24;;;;;;;9.87;8.97;;;;;;;15.45;58.56;99787.97;10426021;28;20204;-68
2023/06/08 05:15:26;;;;;;;10.30;9.20;;;;;;;16.65;56.23;99783.50;10417278;28;20968;-69
2023/06/08 05:20:29;;;;;;;10.93;9.27;;;;;;;16.23;57.36;99779.53;10423393;28;20428;-70
2023/06/08 05:25:31;;;;;;;10.17;9.17;;;;;;;17.42;55.77;99812.72;10423493;28;20311;-68
2023/06/08 05:30:33;;;;;;;10.03;9.03;;;;;;;16.36;57.08;99808.28;10429342;28;20211;-71
2023/06/08 05:35:35;;;;;;;9.33;8.43;;;;;;;19.02;52.54;99810.06;10421948;28;20225;-69
2023/06/08 05:40:36;;;;;;;11.80;9.03;;;;;;;16.83;55.34;99815.09;10431833;28;20221;-69
2023/06/08 05:45:38;;;;;;;15.63;10.27;;;;;;;16.15;58.36;99822.19;10423481;28;20236;-69
2023/06/08 05:50:40;;;;;;;11.77;9.47;;;;;;;15.36;59.65;99803.59;10431972;28;20646;-69
2023/06/08 05:55:42;;;;;;;11.47;10.03;;;;;;;16.11;57.91;99810.16;10416775;28;20310;-69
2023/06/08 06:00:43;;;;;;;10.40;9.40;;;;;;;16.30;58.60;99797.56;10434234;28;20247;-70
2023/06/08 06:05:45;;;;;;;11.13;9.33;;;;;;;16.13;58.46;99810.75;10426808;28;20223;-68
2023/06/08 06:10:47;;;;;;;11.00;9.50;;;;;;;15.59;58.67;99789.59;10427946;28;20591;-69
2023/06/08 06:15:49;;;;;;;13.13;9.70;;;;;;;16.42;58.11;99779.59;10395626;28;20232;-69
2023/06/08 06:20:51;;;;;;;11.20;10.10;;;;;;;16.79;57.08;99771.50;10400083;28;20777;-69
2023/06/08 06:25:52;;;;;;;11.70;10.70;;;;;;;15.74;59.78;99813.56;10398626;28;20710;-68
2023/06/08 06:30:54;;;;;;;12.13;10.33;;;;;;;17.65;55.52;99799.31;10395558;28;20215;-70
2023/06/08 06:35:56;;;;;;;15.03;10.50;;;;;;;16.63;58.09;99791.81;10395774;28;20330;-69
2023/06/08 06:40:58;;;;;;;12.97;11.67;;;;;;;17.42;56.43;99799.22;10395187;28;20314;-69
2023/06/08 06:45:59;;;;;;;12.93;10.83;;;;;;;15.79;59.09;99786.75;10396747;28;20771;-70
2023/06/08 06:51:01;;;;;;;12.83;11.53;;;;;;;16.41;58.22;99788.72;10402173;28;20283;-69
2023/06/08 06:56:03;;;;;;;12.30;11.20;;;;;;;15.09;61.45;99776.78;10393698;28;20310;-68
2023/06/08 07:01:06;;;;;;;13.00;11.70;;;;;;;15.98;59.74;99768.75;10395785;28;20865;-69
2023/06/08 07:06:11;;;;;;;15.90;11.90;;;;;;;17.32;56.51;99770.00;10393914;28;20257;-69
2023/06/08 07:11:13;;;;;;;12.80;11.57;;;;;;;17.50;55.95;99764.53;10400994;28;20279;-69
2023/06/08 07:16:16;;;;;;;12.80;11.50;;;;;;;18.50;55.48;99783.75;10392039;28;20418;-69
2023/06/08 07:21:21;;;;;;;11.97;10.87;;;;;;;18.39;54.30;99760.19;10391979;28;20574;-70
2023/06/08 07:26:24;;;;;;;11.57;10.47;;;;;;;19.22;53.41;99766.25;10396768;28;20308;-69
2023/06/08 07:31:32;;;;;;;12.23;11.03;;;;;;;19.06;54.25;99759.72;10400797;28;20275;-69
2023/06/08 07:36:35;;;;;;;13.13;11.83;;;;;;;18.50;55.46;99734.97;10394007;28;20320;-69
2023/06/08 07:41:37;;;;;;;13.07;11.20;;;;;;;18.93;54.52;99720.16;10393049;28;20280;-69
2023/06/08 07:46:38;;;;;;;13.30;11.83;;;;;;;19.68;53.18;99718.25;10397716;28;20287;-70
2023/06/08 07:51:40;;;;;;;14.17;11.17;;;;;;;19.55;53.57;99689.56;10400625;28;20622;-70
2023/06/08 07:56:42;;;;;;;13.07;11.70;;;;;;;19.48;53.83;99688.84;10397219;28;20274;-70
2023/06/08 08:01:44;;;;;;;13.32;12.02;;;;;;;18.54;57.11;99735.31;10392427;28;20293;-70
2023/06/08 08:06:46;;;;;;;13.25;11.65;;;;;;;19.87;55.51;99667.25;10387936;28;20232;-70
2023/06/08 08:11:47;;;;;;;13.50;11.73;;;;;;;20.42;55.16;99678.31;10400340;28;20235;-70
2023/06/08 08:16:50;;;;;;;13.40;12.00;;;;;;;19.81;55.35;99659.28;10391292;28;20342;-69
2023/06/08 08:21:51;;;;;;;12.77;11.48;;;;;;;20.53;53.11;99666.50;10404055;28;20718;-69
2023/06/08 08:26:57;;;;;;;12.63;10.70;;;;;;;19.95;53.13;99646.97;10395104;28;20314;-71
2023/06/08 08:31:58;;;;;;;11.38;10.07;;;;;;;20.47;52.76;99675.66;10387372;28;20930;-70
2023/06/08 08:37:00;;;;;;;11.55;10.30;;;;;;;20.02;53.61;99635.94;10377739;28;21006;-71
2023/06/08 08:42:08;;;;;;;10.90;9.73;;;;;;;18.98;54.10;99640.81;10397819;28;20260;-68
2023/06/08 08:47:13;;;;;;;10.93;9.60;;;;;;;20.77;51.56;99652.66;10387909;28;20233;-69
2023/06/08 08:52:19;;;;;;;9.95;8.90;;;;;;;21.42;51.11;99658.97;10389560;28;20204;-68
2023/06/08 08:57:21;;;;;;;9.10;8.20;;;;;;;20.74;51.38;99643.06;10389005;28;20237;-69
2023/06/08 09:02:24;;;;;;;10.75;9.75;;;;;;;19.85;52.51;99655.78;10398159;28;20244;-68
2023/06/08 09:07:26;;;;;;;10.70;9.70;;;;;;;18.90;53.78;99690.78;10384967;28;20229;-71
2023/06/08 09:12:38;;;;;;;9.90;8.90;;;;;;;21.38;49.74;99647.78;10394203;28;20713;-69
2023/06/08 09:17:40;;;;;;;10.63;9.45;;;;;;;21.65;49.14;99636.00;10389417;28;20231;-71
2023/06/08 09:22:43;;;;;;;9.90;9.00;;;;;;;21.10;50.87;99596.38;10397172;28;20229;-70
2023/06/08 09:27:45;;;;;;;9.68;8.77;;;;;;;20.24;51.45;99642.22;10391486;28;20244;-69
2023/06/08 09:32:47;;;;;;;8.50;7.72;;;;;;;20.29;51.02;99595.28;10382600;28;20300;-69
2023/06/08 09:37:50;;;;;;;8.60;7.43;;;;;;;22.68;48.52;99614.69;10392268;28;20708;-70
2023/06/08 09:42:53;;;;;;;7.85;7.03;;;;;;;21.42;48.97;99569.16;10385181;28;20718;-69
2023/06/08 09:48:10;;;;;;;7.97;7.28;;;;;;;23.22;47.46;99580.66;10388099;28;20318;-67
2023/06/08 09:53:13;;;;;;;7.55;6.85;;;;;;;24.12;45.55;99495.16;10395322;28;20211;-66
2023/06/08 09:58:15;;;;;;;6.78;6.05;;;;;;;23.66;45.44;99486.38;10404386;28;20248;-67
2023/06/08 10:03:28;;;;;;;5.78;5.10;;;;;;;23.21;45.63;99491.66;10391056;28;20298;-67
2023/06/08 10:08:30;;;;;;;6.70;6.00;;;;;;;23.69;45.00;99489.38;10394010;28;20204;-68
2023/06/08 10:13:32;;;;;;;8.00;7.03;;;;;;;22.99;46.59;99505.59;10400658;28;20225;-67
2023/06/08 10:18:35;;;;;;;8.50;6.85;;;;;;;24.52;44.87;99432.28;10411744;28;20633;-67
2023/06/08 10:23:38;;;;;;;6.47;5.75;;;;;;;24.15;43.96;99429.00;10395125;28;20228;-66
2023/06/08 10:29:07;;;;;;;6.00;5.40;;;;;;;24.94;43.10;99454.66;10391747;28;20228;-67
2023/06/08 10:34:23;;;;;;;6.53;5.50;;;;;;;24.14;43.10;99412.88;10387346;28;20703;-67
2023/06/08 10:39:24;;;;;;;6.80;5.63;;;;;;;24.21;43.41;99420.78;10397766;28;20205;-67
2023/06/08 10:44:31;;;;;;;7.43;5.60;;;;;;;24.67;42.69;99390.31;10384613;28;20228;-67
2023/06/08 10:49:35;;;;;;;4.63;4.22;;;;;;;24.70;40.29;99433.53;10387589;28;20212;-66
2023/06/08 10:54:53;;;;;;;3.58;3.28;;;;;;;23.96;37.76;99406.19;10381422;28;20222;-67
2023/06/08 10:59:55;;;;;;;4.28;3.50;;;;;;;24.82;37.50;99394.84;10387904;28;20215;-67
2023/06/08 11:06:29;;;;;;;4.93;4.43;;;;;;;22.74;43.25;99470.97;10416365;28;20827;-66
2023/06/08 11:11:32;;;;;;;4.70;3.70;;;;;;;23.24;40.78;99431.88;10405885;28;20205;-67
2023/06/08 11:16:34;;;;;;;4.53;3.55;;;;;;;23.21;39.34;99431.63;10408575;28;20224;-67
2023/06/08 11:21:36;;;;;;;5.10;3.50;;;;;;;23.56;37.74;99416.22;10421098;28;20200;-66
2023/06/08 11:26:38;;;;;;;6.55;3.90;;;;;;;24.02;39.30;99415.97;10410862;28;20232;-66
2023/06/08 11:32:10;;;;;;;5.50;3.95;;;;;;;24.23;38.47;99424.88;10415669;28;20223;-67
2023/06/08 11:37:16;;;;;;;6.68;3.95;;;;;;;23.75;38.41;99381.72;10401730;28;20316;-67
2023/06/08 11:42:18;;;;;;;6.45;4.25;;;;;;;23.84;38.16;99408.44;10418850;28;20305;-67
2023/06/08 11:47:20;;;;;;;5.25;3.97;;;;;;;24.42;37.80;99378.50;10415730;28;20232;-65
2023/06/08 11:52:22;;;;;;;4.43;3.30;;;;;;;24.66;37.02;99378.56;10414776;28;20220;-67
2023/06/08 11:57:43;;;;;;;4.72;3.40;;;;;;;23.98;35.81;99363.78;10421292;28;20243;-67
2023/06/08 12:02:49;;;;;;;7.05;3.83;;;;;;;25.00;35.22;99358.53;10414091;28;20248;-67
2023/06/08 12:08:14;;;;;;;4.30;3.60;;;;;;;24.86;36.02;99347.44;10420785;28;20223;-67
2023/06/08 12:13:20;;;;;;;4.50;4.10;;;;;;;25.33;34.85;99333.22;10418201;28;20628;-68
2023/06/08 12:18:22;;;;;;;4.28;3.88;;;;;;;25.36;36.18;99319.75;10390528;28;20271;-66
2023/06/08 12:23:24;;;;;;;4.57;4.07;;;;;;;25.91;36.07;99293.75;10386792;28;20246;-67
2023/06/08 12:28:25;;;;;;;4.30;3.90;;;;;;;24.86;35.54;99279.03;10385594;28;20209;-67
2023/06/08 12:33:27;;;;;;;4.78;3.80;;;;;;;25.92;34.87;99279.75;10381772;28;20334;-67
2023/06/08 12:38:30;;;;;;;4.53;3.75;;;;;;;25.38;34.47;99308.50;10388700;28;20799;-67
2023/06/08 12:43:32;;;;;;;5.20;4.03;;;;;;;25.36;34.30;99278.69;10395591;28;20606;-67
2023/06/08 12:48:34;;;;;;;5.50;4.07;;;;;;;25.57;34.92;99303.03;10390074;28;20241;-67
2023/06/08 12:53:35;;;;;;;4.07;3.55;;;;;;;25.39;34.82;99291.78;10384698;28;20228;-67
2023/06/08 12:58:37;;;;;;;6.53;3.42;;;;;;;26.02;34.22;99267.81;10394072;28;20216;-66
2023/06/08 13:03:39;;;;;;;5.20;3.88;;;;;;;26.46;34.54;99243.72;10387781;28;20252;-66
2023/06/08 13:08:41;;;;;;;3.38;3.00;;;;;;;25.55;32.45;99262.22;10391820;28;20224;-67
2023/06/08 13:13:43;;;;;;;5.20;3.42;;;;;;;25.45;33.76;99300.72;10364999;28;20225;-66
2023/06/08 13:18:45;;;;;;;4.35;3.33;;;;;;;25.84;32.53;99281.25;10384858;28;20213;-66
2023/06/08 13:23:47;;;;;;;3.75;3.38;;;;;;;25.89;31.83;99249.41;10384466;28;20316;-67
2023/06/08 13:28:52;;;;;;;4.35;3.53;;;;;;;26.54;32.83;99230.09;10389243;28;20216;-67
2023/06/08 13:33:53;;;;;;;5.20;3.20;;;;;;;26.34;31.82;99260.69;10382652;28;20226;-67
2023/06/08 13:38:56;;;;;;;5.50;4.00;;;;;;;26.60;32.25;99254.69;10390343;28;20212;-66
2023/06/08 13:43:58;;;;;;;5.30;3.50;;;;;;;24.86;33.05;99344.72;10389932;28;20291;-67
2023/06/08 13:49:01;;;;;;;4.28;3.05;;;;;;;23.76;35.38;99371.63;10387284;28;20445;-66
2023/06/08 13:54:03;;;;;;;5.32;3.45;;;;;;;24.31;36.38;99330.47;10383456;28;20707;-66
2023/06/08 13:59:05;;;;;;;4.68;3.17;;;;;;;23.26;36.17;99366.09;10391094;28;20228;-67
2023/06/08 14:04:07;;;;;;;4.50;3.25;;;;;;;23.04;37.20;99385.53;10388445;28;20243;-66
2023/06/08 14:09:10;;;;;;;5.93;3.35;;;;;;;22.45;37.39;99366.00;10385687;28;20217;-67
2023/06/08 14:14:11;;;;;;;7.18;3.67;;;;;;;23.06;37.62;99351.47;10382053;28;20282;-67
2023/06/08 14:19:14;;;;;;;4.78;3.13;;;;;;;23.03;36.86;99340.28;10384396;28;20219;-66
2023/06/08 14:24:16;;;;;;;3.72;3.30;;;;;;;22.87;36.95;99342.22;10391634;28;20294;-67
2023/06/08 14:29:18;;;;;;;5.10;3.75;;;;;;;21.46;37.64;99343.53;10388712;28;20211;-67
2023/06/08 14:34:20;;;;;;;4.22;3.10;;;;;;;23.72;36.74;99297.63;10380919;28;20304;-66
2023/06/08 14:39:22;;;;;;;4.00;3.20;;;;;;;22.18;36.82;99357.28;10385265;28;20205;-66
2023/06/08 14:44:23;;;;;;;4.32;3.00;;;;;;;22.95;36.21;99365.41;10391625;28;20703;-67
2023/06/08 14:49:27;;;;;;;4.70;3.90;;;;;;;24.35;36.30;99285.06;10380288;28;20214;-67
2023/06/08 14:54:29;;;;;;;5.18;3.65;;;;;;;24.32;37.16;99300.13;10386218;28;20225;-69
2023/06/08 14:59:31;;;;;;;4.28;3.83;;;;;;;25.11;36.88;99268.88;10388540;28;20227;-68
2023/06/08 15:04:32;;;;;;;6.90;3.45;;;;;;;24.72;35.89;99267.19;10386369;28;20411;-69
2023/06/08 15:09:34;;;;;;;4.15;2.95;;;;;;;24.73;35.78;99290.69;10368645;28;20208;-65
2023/06/08 15:14:36;;;;;;;4.05;3.10;;;;;;;24.04;36.22;99339.16;10376034;28;20780;-67
2023/06/08 15:19:37;;;;;;;9.27;3.10;;;;;;;23.77;36.20;99379.53;10384868;28;20251;-68
2023/06/08 15:24:39;;;;;;;5.68;3.35;;;;;;;23.34;36.70;99383.81;10372544;28;20260;-70
2023/06/08 15:29:41;;;;;;;4.65;3.10;;;;;;;23.66;36.78;99355.28;10380692;28;20216;-67
2023/06/08 15:34:43;;;;;;;3.17;2.88;;;;;;;23.71;36.68;99377.91;10382532;28;20699;-68
2023/06/08 15:39:44;;;;;;;4.90;3.05;;;;;;;24.11;35.98;99323.28;10381809;28;20292;-67
2023/06/08 15:44:46;;;;;;;3.13;2.78;;;;;;;24.20;36.09;99294.25;10390019;28;20268;-68
2023/06/08 15:49:48;;;;;;;3.45;3.05;;;;;;;23.09;37.13;99371.91;10387030;28;20205;-69
2023/06/08 15:54:50;;;;;;;3.53;3.10;;;;;;;23.92;36.02;99285.72;10393828;28;20231;-68
2023/06/08 15:59:52;;;;;;;3.17;2.80;;;;;;;24.04;35.51;99306.38;10395365;28;20220;-68
2023/06/08 16:04:53;;;;;;;3.40;2.90;;;;;;;24.13;35.72;99316.41;10389325;28;20261;-69
2023/06/08 16:09:56;;;;;;;5.70;3.03;;;;;;;25.22;34.78;99244.94;10391419;28;20690;-67
2023/06/08 16:14:59;;;;;;;3.25;2.83;;;;;;;24.84;35.45;99283.19;10391685;28;20239;-69
2023/06/08 16:20:01;;;;;;;3.95;2.88;;;;;;;25.37;35.40;99242.00;10392789;28;20216;-68
2023/06/08 16:25:02;;;;;;;2.63;2.42;;;;;;;25.98;34.54;99225.69;10385736;28;20754;-68
2023/06/08 16:30:05;;;;;;;3.22;2.63;;;;;;;25.07;34.60;99257.72;10389493;28;20667;-69
2023/06/08 16:35:08;;;;;;;3.42;3.08;;;;;;;25.24;35.39;99272.84;10384067;28;20938;-67
2023/06/08 16:40:10;;;;;;;3.58;2.92;;;;;;;25.37;35.07;99277.59;10383291;28;20581;-69
2023/06/08 16:45:12;;;;;;;3.40;3.10;;;;;;;24.79;35.39;99291.47;10392489;28;20791;-68
2023/06/08 16:50:13;;;;;;;3.63;2.92;;;;;;;25.46;34.46;99253.06;10389569;28;20205;-69
2023/06/08 16:55:15;;;;;;;3.83;3.13;;;;;;;26.21;34.08;99229.34;10385246;28;20699;-68
2023/06/08 17:00:17;;;;;;;2.83;2.63;;;;;;;26.33;34.09;99231.63;10389447;28;20221;-69
2023/06/08 17:05:19;;;;;;;3.92;3.30;;;;;;;24.78;35.61;99292.56;10387523;28;20751;-68
2023/06/08 17:10:21;;;;;;;3.40;2.95;;;;;;;24.10;35.44;99310.69;10386052;28;20214;-69
2023/06/08 17:15:23;;;;;;;3.40;3.03;;;;;;;24.89;35.60;99299.53;10391591;28;20221;-68
2023/06/08 17:20:25;;;;;;;5.68;3.33;;;;;;;25.59;35.01;99262.44;10383168;28;20295;-68
2023/06/08 17:25:27;;;;;;;4.20;2.88;;;;;;;25.13;34.61;99306.91;10388945;28;20621;-69
2023/06/08 17:30:28;;;;;;;2.97;2.72;;;;;;;25.51;34.70;99271.34;10389261;28;20252;-69
2023/06/08 17:35:30;;;;;;;3.30;3.00;;;;;;;25.24;34.89;99275.59;10384123;28;20225;-68
2023/06/08 17:40:32;;;;;;;3.03;2.72;;;;;;;24.97;35.16;99290.69;10380683;28;20248;-68
2023/06/08 17:45:34;;;;;;;3.08;2.80;;;;;;;25.24;35.01;99275.59;10389360;28;20240;-69
2023/06/08 17:50:36;;;;;;;3.35;2.70;;;;;;;24.82;35.58;99315.50;10385916;28;20301;-68
2023/06/08 17:55:38;;;;;;;3.63;2.90;;;;;;;23.44;37.72;99337.38;10387121;28;20672;-67
2023/06/08 18:00:40;;;;;;;3.30;3.00;;;;;;;22.86;39.19;99365.97;10384600;28;20219;-67
2023/06/08 18:05:42;;;;;;;4.22;2.92;;;;;;;24.32;37.25;99304.78;10385466;28;20303;-67
2023/06/08 18:10:44;;;;;;;4.85;3.45;;;;;;;22.66;39.54;99355.09;10388287;28;20572;-66
2023/06/08 18:15:45;;;;;;;3.72;3.35;;;;;;;23.16;38.81;99323.31;10388062;28;20806;-68
2023/06/08 18:20:47;;;;;;;3.80;3.50;;;;;;;23.23;38.93;99345.66;10385633;28;20213;-67
2023/06/08 18:25:49;;;;;;;5.18;4.00;;;;;;;22.51;40.44;99370.38;10384973;28;20244;-67
2023/06/08 18:30:51;;;;;;;3.28;2.88;;;;;;;21.81;41.22;99377.38;10387325;28;20797;-67
2023/06/08 18:35:53;;;;;;;3.40;3.10;;;;;;;22.07;41.74;99381.81;10381103;28;20228;-66
2023/06/08 18:40:54;;;;;;;5.00;3.53;;;;;;;23.02;40.47;99349.53;10386945;28;20204;-68
2023/06/08 18:45:56;;;;;;;4.03;3.63;;;;;;;23.43;40.41;99339.28;10390579;28;20314;-67
2023/06/08 18:50:58;;;;;;;5.68;3.25;;;;;;;22.51;41.12;99383.22;10381608;28;20768;-68
2023/06/08 18:56:00;;;;;;;2.92;2.60;;;;;;;23.06;40.13;99353.34;10381524;28;20224;-67
2023/06/08 19:01:02;;;;;;;3.40;2.90;;;;;;;22.94;40.19;99382.84;10385138;28;20715;-67
2023/06/08 19:06:04;;;;;;;4.10;2.92;;;;;;;21.90;41.30;99424.81;10376495;28;20319;-66
2023/06/08 19:11:06;;;;;;;3.50;3.20;;;;;;;21.50;41.36;99432.56;10378640;28;20213;-68
2023/06/08 19:16:09;;;;;;;3.45;3.15;;;;;;;22.13;40.66;99427.06;10375884;28;20253;-67
2023/06/08 19:21:11;;;;;;;4.05;3.00;;;;;;;23.50;39.39;99355.34;10383315;28;20672;-67
2023/06/08 19:26:13;;;;;;;5.40;3.28;;;;;;;23.92;38.58;99353.19;10388347;28;20240;-67
2023/06/08 19:31:14;;;;;;;3.08;2.78;;;;;;;23.81;38.69;99375.13;10390026;28;20237;-68
2023/06/08 19:36:16;;;;;;;4.25;3.85;;;;;;;21.89;42.02;99480.34;10389130;28;20225;-67
2023/06/08 19:41:18;;;;;;;4.15;3.55;;;;;;;23.45;40.17;99385.41;10394202;28;20634;-68
2023/06/08 19:46:21;;;;;;;4.80;3.28;;;;;;;23.01;40.87;99392.38;10391649;28;20232;-68
2023/06/08 19:51:23;;;;;;;4.18;3.60;;;;;;;22.05;42.26;99451.25;10378787;28;20213;-66
2023/06/08 19:56:25;;;;;;;4.03;3.42;;;;;;;22.19;42.76;99446.13;10394635;28;20221;-67
2023/06/08 20:01:26;;;;;;;4.53;3.10;;;;;;;21.40;43.15;99476.88;10391701;28;20229;-68
2023/06/08 20:06:29;;;;;;;4.65;3.70;;;;;;;20.55;44.41;99506.69;10393484;28;20243;-67
2023/06/08 20:11:31;;;;;;;5.38;4.00;;;;;;;20.91;43.75;99511.66;10393579;28;20213;-66
2023/06/08 20:16:33;;;;;;;4.22;3.83;;;;;;;22.41;42.14;99445.88;10392840;28;20228;-68
2023/06/08 20:21:34;;;;;;;4.28;3.45;;;;;;;22.44;42.18;99451.59;10392763;28;20201;-67
2023/06/08 20:26:41;;;;;;;4.13;3.50;;;;;;;21.63;43.16;99484.88;10390654;28;20307;-68
2023/06/08 20:31:43;;;;;;;5.32;3.78;;;;;;;22.21;42.50;99424.88;10384588;28;20212;-68
2023/06/08 20:36:46;;;;;;;4.60;3.95;;;;;;;20.17;44.77;99529.41;10388976;28;20735;-67
2023/06/08 20:41:48;;;;;;;4.30;3.50;;;;;;;21.82;42.95;99472.44;10395383;28;20227;-68
2023/06/08 20:46:50;;;;;;;5.40;3.80;;;;;;;22.36;41.88;99493.03;10389608;28;20239;-68
2023/06/08 20:51:53;;;;;;;5.80;3.97;;;;;;;22.06;42.52;99483.69;10385793;28;20224;-68
2023/06/08 20:56:54;;;;;;;4.13;3.72;;;;;;;21.74;42.23;99498.25;10383752;28;20279;-69
2023/06/08 21:01:56;;;;;;;5.32;4.07;;;;;;;20.41;43.80;99538.06;10383007;28;20245;-69
2023/06/08 21:06:58;;;;;;;5.10;4.15;;;;;;;20.30;44.27;99553.47;10387401;28;20290;-68
2023/06/08 21:12:01;;;;;;;5.80;4.43;;;;;;;19.88;44.62;99543.97;10386403;28;20808;-68
2023/06/08 21:17:04;;;;;;;4.75;4.15;;;;;;;19.16;45.32;99531.28;10382120;28;20292;-68
2023/06/08 21:22:06;;;;;;;5.80;4.15;;;;;;;20.15;43.51;99520.66;10391651;28;20243;-68
2023/06/08 21:27:07;;;;;;;4.55;3.80;;;;;;;20.19;44.26;99528.06;10385495;28;20237;-68
2023/06/08 21:32:10;;;;;;;5.07;3.88;;;;;;;20.17;44.02;99519.34;10385976;28;20256;-68
2023/06/08 21:37:14;;;;;;;3.95;3.53;;;;;;;20.01;43.88;99515.63;10385319;28;20250;-67
2023/06/08 21:42:16;;;;;;;4.05;3.70;;;;;;;19.51;44.30;99547.25;10388993;28;20216;-68
2023/06/08 21:47:18;;;;;;;5.32;4.00;;;;;;;19.12;44.84;99558.06;10383031;28;20233;-70
2023/06/08 21:52:21;;;;;;;7.75;4.75;;;;;;;18.63;45.05;99555.06;10390521;28;20216;-71
2023/06/08 21:57:23;;;;;;;4.93;4.40;;;;;;;18.80;45.51;99571.34;10393201;28;20260;-72
2023/06/08 22:02:25;;;;;;;11.60;4.25;;;;;;;18.82;44.75;99569.19;10383687;28;20242;-70
2023/06/08 22:07:27;;;;;;;5.40;3.83;;;;;;;19.26;43.53;99569.41;10387058;28;20245;-71
2023/06/08 22:12:29;;;;;;;4.63;3.92;;;;;;;19.45;43.50;99561.84;10381780;28;20218;-71
2023/06/08 22:17:30;;;;;;;5.00;3.97;;;;;;;19.06;43.57;99598.91;10379026;28;20340;-71
2023/06/08 22:22:32;;;;;;;3.97;3.58;;;;;;;18.31;44.53;99608.91;10385467;28;20258;-70
2023/06/08 22:27:34;;;;;;;5.20;4.35;;;;;;;19.92;42.23;99547.84;10382087;28;20635;-71
2023/06/08 22:32:36;;;;;;;5.22;4.68;;;;;;;18.30;44.85;99610.78;10383215;28;20267;-69
2023/06/08 22:37:38;;;;;;;4.95;4.45;;;;;;;18.75;44.38;99599.16;10382495;28;20237;-71
2023/06/08 22:42:39;;;;;;;4.50;3.92;;;;;;;18.69;43.64;99599.31;10385402;28;20219;-71
2023/06/08 22:47:41;;;;;;;9.87;4.47;;;;;;;19.35;43.11;99577.94;10383915;28;20366;-71
2023/06/08 22:52:45;;;;;;;9.13;4.45;;;;;;;17.36;45.72;99555.66;10381181;28;20598;-68
2023/06/08 22:57:47;;;;;;;4.97;3.63;;;;;;;17.53;45.56;99590.13;10385753;28;20930;-71
2023/06/08 23:02:49;;;;;;;6.23;4.23;;;;;;;19.71;43.30;99556.78;10383618;28;20240;-71
2023/06/08 23:07:50;;;;;;;6.67;4.47;;;;;;;19.45;43.62;99572.69;10380621;28;20237;-70
2023/06/08 23:12:52;;;;;;;5.03;4.43;;;;;;;18.95;44.27;99596.03;10386071;28;20299;-70
2023/06/08 23:17:54;;;;;;;6.87;4.43;;;;;;;17.55;46.47;99618.59;10389836;28;20232;-71
2023/06/08 23:22:56;;;;;;;5.73;4.90;;;;;;;17.31;47.01;99606.94;10383042;28;20676;-72
2023/06/08 23:27:58;;;;;;;6.60;4.40;;;;;;;17.77;46.96;99595.56;10376597;28;20268;-71